Time;durP1;ratioP1;P1;durP2;ratioP2;P2;SDS_P1;SDS_P2;PMS_P1;PMS_P2;Temp;Humidity;BMP_temperature;BMP_pressure;BME280_temperature;BME280_humidity;BME280_pressure;Samples;Min_cycle;Max_cycle;Signal;HPM_P1;HPM_P2
2021/03/06 00:00:37;;;;;;;5.83;2.02;;;;;;;-1.43;57.84;99877.40;1714239;83;21327;-66
2021/03/06 00:03:05;;;;;;;7.47;2.40;;;;;;;-1.46;57.85;99883.62;1694012;84;21137;-66
2021/03/06 00:05:32;;;;;;;5.10;1.90;;;;;;;-1.52;58.08;99880.69;1697304;83;21149;-65
2021/03/06 00:08:02;;;;;;;5.10;2.08;;;;;;;-1.56;58.08;99883.42;1703155;83;21179;-65
2021/03/06 00:10:29;;;;;;;5.87;1.77;;;;;;;-1.62;58.13;99875.34;1693443;84;21149;-65
2021/03/06 00:12:57;;;;;;;4.10;1.90;;;;;;;-1.63;58.00;99885.73;1696849;84;21185;-65
2021/03/06 00:15:32;;;;;;;5.87;1.75;;;;;;;-1.65;58.02;99894.42;1696606;84;21320;-65
2021/03/06 00:18:00;;;;;;;6.40;1.90;;;;;;;-1.78;57.16;99885.77;1700154;83;21371;-66
2021/03/06 00:20:29;;;;;;;4.33;1.35;;;;;;;-1.74;57.57;99900.40;1692625;84;21737;-66
2021/03/06 00:22:57;;;;;;;5.20;1.40;;;;;;;-1.77;57.37;99898.61;1685822;83;21146;-65
2021/03/06 00:25:25;;;;;;;5.00;1.75;;;;;;;-1.81;57.53;99892.00;1691489;84;21165;-65
2021/03/06 00:27:53;;;;;;;5.60;1.72;;;;;;;-1.81;57.69;99898.16;1685780;83;21107;-65
2021/03/06 00:30:23;;;;;;;6.25;2.10;;;;;;;-1.87;58.13;99904.23;1676799;85;21645;-65
2021/03/06 00:32:50;;;;;;;8.13;2.05;;;;;;;-1.88;57.90;99895.93;1690995;83;21280;-65
2021/03/06 00:35:18;;;;;;;4.47;1.50;;;;;;;-1.92;58.21;99899.98;1666054;83;21128;-65
2021/03/06 00:37:45;;;;;;;4.15;1.67;;;;;;;-1.96;58.10;99895.20;1643544;86;21193;-68
2021/03/06 00:40:14;;;;;;;6.72;1.70;;;;;;;-1.98;57.82;99895.91;1637875;86;21390;-64
2021/03/06 00:42:41;;;;;;;4.78;1.70;;;;;;;-2.00;57.99;99905.42;1617154;86;21165;-65
2021/03/06 00:45:10;;;;;;;6.55;1.95;;;;;;;-2.05;57.67;99907.30;1701934;83;21719;-66
2021/03/06 00:47:38;;;;;;;4.47;1.70;;;;;;;-2.06;58.17;99903.50;1701413;83;21659;-66
2021/03/06 00:50:16;;;;;;;5.05;1.90;;;;;;;-2.14;58.03;99906.27;1725590;83;21232;-65
2021/03/06 00:52:43;;;;;;;5.62;1.90;;;;;;;-2.15;58.05;99906.77;1686387;81;21188;-66
2021/03/06 00:55:13;;;;;;;5.72;1.77;;;;;;;-2.17;58.21;99908.81;1727485;83;21323;-66
2021/03/06 00:57:40;;;;;;;3.75;1.42;;;;;;;-2.17;58.38;99903.98;1680901;83;21375;-66
2021/03/06 01:00:11;;;;;;;7.03;2.25;;;;;;;-2.22;58.57;99913.86;1702526;83;21175;-66
2021/03/06 01:02:39;;;;;;;5.42;2.10;;;;;;;-2.23;58.38;99905.53;1680382;83;21607;-65
2021/03/06 01:05:08;;;;;;;7.25;2.00;;;;;;;-2.23;58.77;99908.73;1698751;83;21195;-66
2021/03/06 01:07:35;;;;;;;5.28;1.98;;;;;;;-2.22;59.09;99910.36;1702927;83;21290;-66
2021/03/06 01:10:15;;;;;;;6.33;2.08;;;;;;;-2.19;58.72;99909.48;1699374;83;21673;-66
2021/03/06 01:12:43;;;;;;;6.15;2.25;;;;;;;-2.23;58.32;99914.86;1708833;83;21563;-66
2021/03/06 01:15:11;;;;;;;6.30;1.85;;;;;;;-2.25;57.93;99918.73;1700883;83;21160;-66
2021/03/06 01:17:38;;;;;;;5.08;1.77;;;;;;;-2.28;57.75;99913.27;1703503;81;21707;-65
2021/03/06 01:20:09;;;;;;;4.28;1.75;;;;;;;-2.28;57.71;99917.78;1727515;83;21354;-66
2021/03/06 01:22:37;;;;;;;6.47;1.85;;;;;;;-2.32;57.81;99917.82;1705506;83;21176;-66
2021/03/06 01:25:06;;;;;;;4.47;1.80;;;;;;;-2.36;57.93;99917.86;1716888;83;21611;-66
2021/03/06 01:27:33;;;;;;;5.40;1.90;;;;;;;-2.38;57.68;99914.06;1688413;83;21156;-65
2021/03/06 01:30:01;;;;;;;4.90;1.57;;;;;;;-2.41;58.13;99920.27;1722819;82;21616;-66
2021/03/06 01:32:29;;;;;;;4.53;1.70;;;;;;;-2.46;58.56;99918.64;1723883;83;21153;-65
2021/03/06 01:34:57;;;;;;;5.75;1.90;;;;;;;-2.43;58.56;99932.94;1734197;81;21251;-66
2021/03/06 01:37:25;;;;;;;3.95;1.42;;;;;;;-2.47;58.60;99932.48;1740806;82;21600;-66
2021/03/06 01:39:53;;;;;;;4.78;1.57;;;;;;;-2.50;59.08;99928.85;1731602;80;21197;-66
2021/03/06 01:42:21;;;;;;;4.20;1.50;;;;;;;-2.52;59.44;99933.05;1742310;82;21291;-65
2021/03/06 01:44:50;;;;;;;3.45;1.30;;;;;;;-2.54;59.62;99928.39;1735668;80;21158;-66
2021/03/06 01:47:19;;;;;;;3.08;1.30;;;;;;;-2.60;59.82;99935.80;1741188;82;21142;-65
2021/03/06 01:49:47;;;;;;;4.10;1.30;;;;;;;-2.67;60.10;99935.36;1697554;84;21199;-65
2021/03/06 01:52:15;;;;;;;3.87;1.30;;;;;;;-2.70;60.37;99937.06;1688450;84;21145;-66
2021/03/06 01:54:44;;;;;;;5.70;2.00;;;;;;;-2.72;60.50;99933.23;1737670;81;21639;-65
2021/03/06 01:57:12;;;;;;;4.10;1.42;;;;;;;-2.78;60.66;99939.80;1705473;82;21440;-65
2021/03/06 01:59:39;;;;;;;5.17;1.60;;;;;;;-2.79;60.71;99942.13;1729972;82;21209;-66
2021/03/06 02:02:07;;;;;;;4.67;1.75;;;;;;;-2.86;60.88;99946.03;1715309;82;21242;-66
2021/03/06 02:04:34;;;;;;;5.80;1.70;;;;;;;-2.90;61.06;99960.71;1739029;80;21150;-65
2021/03/06 02:07:02;;;;;;;4.95;2.05;;;;;;;-2.92;60.80;99956.58;1739074;82;21174;-65
2021/03/06 02:09:30;;;;;;;5.75;2.20;;;;;;;-2.99;61.03;99955.14;1696884;84;21327;-66
2021/03/06 02:12:26;;;;;;;4.92;1.90;;;;;;;-3.03;61.16;99960.50;1744181;82;21142;-67
2021/03/06 02:15:28;;;;;;;5.03;1.47;;;;;;;-3.10;61.29;99962.22;1734431;80;21311;-65
2021/03/06 02:18:15;;;;;;;4.80;1.70;;;;;;;-3.19;61.21;99973.95;1701726;82;21573;-65
2021/03/06 02:20:50;;;;;;;5.15;1.90;;;;;;;-3.30;61.45;99969.03;1701666;84;21617;-66
2021/03/06 02:23:48;;;;;;;6.85;2.08;;;;;;;-3.35;61.42;99976.71;1711199;84;21175;-65
2021/03/06 02:29:39;;;;;;;5.03;1.55;;;;;;;-3.43;61.31;99985.58;1673872;84;22039;-67
2021/03/06 02:32:18;;;;;;;4.72;1.82;;;;;;;-3.49;61.36;99990.28;1627418;88;21213;-66
2021/03/06 02:35:06;;;;;;;3.22;1.30;;;;;;;-3.54;61.21;99990.80;1642961;86;21328;-67
2021/03/06 02:37:38;;;;;;;5.90;1.90;;;;;;;-3.56;61.28;99988.83;1651042;86;21194;-67
2021/03/06 02:40:07;;;;;;;4.65;1.35;;;;;;;-3.66;61.51;100000.69;1628609;86;21296;-67
2021/03/06 02:42:34;;;;;;;3.67;1.42;;;;;;;-3.71;61.72;100001.20;1628581;86;21922;-66
2021/03/06 02:45:02;;;;;;;3.42;1.32;;;;;;;-3.73;61.87;100006.37;1636482;88;21213;-66
2021/03/06 02:47:30;;;;;;;4.20;1.70;;;;;;;-3.77;61.99;100010.38;1622155;88;21162;-67
2021/03/06 02:49:59;;;;;;;3.55;1.40;;;;;;;-3.83;62.07;100007.09;1641822;86;21190;-66
2021/03/06 02:52:27;;;;;;;4.08;1.70;;;;;;;-3.87;62.28;100010.59;1671231;85;21189;-66
2021/03/06 02:54:55;;;;;;;6.50;1.60;;;;;;;-3.94;62.28;100013.63;1648392;85;21224;-66
2021/03/06 02:57:43;;;;;;;4.37;1.47;;;;;;;-4.00;62.22;100025.45;1663311;86;21249;-66
2021/03/06 03:00:42;;;;;;;3.40;1.55;;;;;;;-4.05;62.12;100020.14;1667026;85;21189;-66
2021/03/06 03:03:57;;;;;;;3.42;1.45;;;;;;;-4.15;61.57;100018.18;1662432;86;21612;-67
2021/03/06 03:06:38;;;;;;;4.70;1.37;;;;;;;-4.20;61.73;100027.65;1661415;84;21311;-66
2021/03/06 03:09:19;;;;;;;7.03;1.75;;;;;;;-4.28;61.69;100028.98;1663289;85;21165;-66
2021/03/06 03:12:20;;;;;;;2.35;1.00;;;;;;;-4.31;61.91;100032.83;1655131;85;21159;-66
2021/03/06 03:15:09;;;;;;;3.58;1.22;;;;;;;-4.33;61.71;100028.19;1668302;85;21169;-66
2021/03/06 03:17:42;;;;;;;4.00;1.10;;;;;;;-4.32;61.79;100027.70;1630915;88;21193;-66
2021/03/06 03:20:37;;;;;;;5.00;1.10;;;;;;;-4.36;61.89;100025.04;1655939;86;21328;-67
2021/03/06 03:23:16;;;;;;;3.77;1.40;;;;;;;-4.41;62.08;100031.34;1654977;86;21312;-66
2021/03/06 03:25:45;;;;;;;3.92;1.30;;;;;;;-4.46;62.18;100035.03;1620108;88;21194;-67
2021/03/06 03:28:12;;;;;;;4.97;1.02;;;;;;;-4.50;62.21;100035.86;1640243;86;21666;-67
2021/03/06 03:30:40;;;;;;;3.45;1.35;;;;;;;-4.50;62.13;100037.69;1660841;86;21187;-66
2021/03/06 03:33:12;;;;;;;6.17;1.40;;;;;;;-4.52;62.04;100040.00;1654826;86;21166;-67
2021/03/06 03:35:41;;;;;;;5.80;1.70;;;;;;;-4.56;62.17;100038.67;1691616;84;21333;-67
2021/03/06 03:38:09;;;;;;;3.42;1.40;;;;;;;-4.62;62.30;100042.50;1688848;84;21155;-67
2021/03/06 03:40:36;;;;;;;2.58;1.00;;;;;;;-4.67;62.17;100037.69;1691784;84;21183;-66
2021/03/06 03:43:04;;;;;;;3.60;1.20;;;;;;;-4.64;62.04;100038.67;1697533;84;21187;-67
2021/03/06 03:45:33;;;;;;;3.90;1.27;;;;;;;-4.71;61.97;100042.99;1690831;84;21587;-67
2021/03/06 03:48:01;;;;;;;3.87;1.10;;;;;;;-4.71;62.09;100046.17;1706165;84;21187;-67
2021/03/06 03:50:29;;;;;;;2.00;1.00;;;;;;;-4.71;62.11;100051.48;1709011;84;21172;-66
2021/03/06 03:52:56;;;;;;;3.12;1.15;;;;;;;-4.71;62.34;100054.95;1687380;84;21183;-67
2021/03/06 03:55:24;;;;;;;3.50;1.40;;;;;;;-4.70;62.42;100053.95;1645044;87;21190;-67
2021/03/06 03:57:53;;;;;;;4.72;1.52;;;;;;;-4.73;62.07;100055.62;1704418;84;21188;-66
2021/03/06 04:00:22;;;;;;;4.50;1.70;;;;;;;-4.73;61.38;100056.95;1707433;84;21560;-66
2021/03/06 04:02:49;;;;;;;5.95;1.75;;;;;;;-4.69;61.33;100060.94;1700205;84;21212;-66
2021/03/06 04:05:17;;;;;;;3.35;1.42;;;;;;;-4.63;61.07;100058.94;1707211;84;21199;-66
2021/03/06 04:07:50;;;;;;;4.28;1.72;;;;;;;-4.63;60.89;100053.63;1688694;84;21215;-67
2021/03/06 04:10:21;;;;;;;4.03;1.50;;;;;;;-4.63;60.92;100049.64;1683129;84;21596;-67
2021/03/06 04:12:49;;;;;;;4.50;1.67;;;;;;;-4.65;60.87;100060.95;1704593;84;21612;-66
2021/03/06 04:15:18;;;;;;;6.50;1.85;;;;;;;-4.64;60.69;100061.25;1709061;84;21314;-67
2021/03/06 04:17:46;;;;;;;4.60;1.70;;;;;;;-4.66;60.75;100065.08;1688665;84;21168;-67
2021/03/06 04:20:20;;;;;;;4.25;1.80;;;;;;;-4.67;60.60;100061.59;1707811;84;21230;-67
2021/03/06 04:22:48;;;;;;;5.03;2.35;;;;;;;-4.64;60.34;100068.42;1704734;84;21188;-67
2021/03/06 04:25:16;;;;;;;4.78;1.90;;;;;;;-4.65;60.09;100065.42;1678044;85;21163;-67
2021/03/06 04:27:43;;;;;;;8.28;2.50;;;;;;;-4.66;60.07;100067.73;1697227;83;21171;-68
2021/03/06 04:30:12;;;;;;;11.20;2.17;;;;;;;-4.63;60.36;100071.39;1707844;83;21188;-68
2021/03/06 04:32:40;;;;;;;8.20;2.30;;;;;;;-4.65;59.93;100071.56;1698519;83;21710;-68
2021/03/06 04:35:29;;;;;;;7.53;2.15;;;;;;;-4.65;60.03;100076.88;1717544;83;21301;-68
2021/03/06 04:37:56;;;;;;;4.42;1.60;;;;;;;-4.70;60.24;100077.86;1760790;80;21121;-66
2021/03/06 04:40:23;;;;;;;5.20;2.08;;;;;;;-4.65;59.90;100072.90;1756195;82;21117;-66
2021/03/06 04:42:51;;;;;;;5.95;2.12;;;;;;;-4.71;60.17;100078.05;1753793;82;21157;-66
2021/03/06 04:45:18;;;;;;;3.77;1.60;;;;;;;-4.72;60.33;100075.89;1751465;82;21655;-66
2021/03/06 04:47:45;;;;;;;6.42;1.95;;;;;;;-4.73;60.36;100071.56;1750908;81;21141;-65
2021/03/06 04:50:13;;;;;;;6.65;2.45;;;;;;;-4.74;60.48;100081.84;1725823;81;21458;-66
2021/03/06 04:52:41;;;;;;;5.92;2.33;;;;;;;-4.72;60.45;100089.16;1745047;82;21576;-67
2021/03/06 04:55:10;;;;;;;5.83;2.17;;;;;;;-4.67;60.46;100084.66;1753975;81;21196;-66
2021/03/06 04:57:37;;;;;;;7.12;2.33;;;;;;;-4.65;60.51;100084.02;1741355;82;21652;-66
2021/03/06 05:00:08;;;;;;;7.87;2.17;;;;;;;-4.65;60.64;100095.48;1745492;82;21153;-66
2021/03/06 05:02:36;;;;;;;5.30;2.05;;;;;;;-4.66;60.78;100092.97;1753148;82;21133;-65
2021/03/06 05:05:06;;;;;;;4.50;2.10;;;;;;;-4.64;61.01;100105.09;1752091;82;21585;-67
2021/03/06 05:07:33;;;;;;;4.40;1.72;;;;;;;-4.60;61.24;100102.44;1728420;82;21294;-67
2021/03/06 05:10:01;;;;;;;5.72;2.00;;;;;;;-4.49;61.05;100105.75;1754124;82;21133;-66
2021/03/06 05:12:29;;;;;;;6.55;2.50;;;;;;;-4.45;61.08;100110.58;1727783;82;21294;-66
2021/03/06 05:14:56;;;;;;;6.85;2.85;;;;;;;-4.34;60.95;100117.38;1725570;83;21601;-66
2021/03/06 05:17:23;;;;;;;5.70;2.60;;;;;;;-4.26;60.84;100117.39;1684433;85;21140;-66
2021/03/06 05:19:51;;;;;;;5.53;2.00;;;;;;;-4.22;60.89;100119.55;1721999;83;21183;-66
2021/03/06 05:22:19;;;;;;;6.05;1.87;;;;;;;-4.19;60.77;100120.54;1717605;83;21189;-66
2021/03/06 05:24:48;;;;;;;4.85;1.90;;;;;;;-4.17;60.53;100122.52;1731172;83;21573;-66
2021/03/06 05:27:18;;;;;;;6.00;2.35;;;;;;;-4.13;60.57;100122.52;1707000;83;21255;-65
2021/03/06 05:29:45;;;;;;;4.47;1.62;;;;;;;-4.07;60.59;100128.98;1706170;83;21194;-66
2021/03/06 05:32:12;;;;;;;4.58;1.70;;;;;;;-4.02;60.25;100134.63;1700907;83;21184;-65
2021/03/06 05:34:40;;;;;;;4.47;1.87;;;;;;;-4.04;60.41;100140.11;1705374;83;21364;-66
2021/03/06 05:37:07;;;;;;;5.05;1.67;;;;;;;-4.02;59.79;100137.30;1666728;85;21617;-66
2021/03/06 05:39:34;;;;;;;5.80;1.90;;;;;;;-3.98;60.09;100140.45;1742034;82;21177;-65
2021/03/06 05:42:04;;;;;;;6.72;2.00;;;;;;;-3.91;60.08;100136.95;1733213;82;21165;-66
2021/03/06 05:44:35;;;;;;;7.72;2.95;;;;;;;-3.86;59.43;100143.91;1736413;82;21183;-65
2021/03/06 05:47:03;;;;;;;6.65;2.08;;;;;;;-3.73;58.74;100154.87;1735549;82;21623;-66
2021/03/06 05:49:33;;;;;;;7.33;2.20;;;;;;;-3.65;57.92;100149.50;1742335;82;21319;-67
2021/03/06 05:52:01;;;;;;;7.10;2.20;;;;;;;-3.54;57.32;100151.80;1709504;82;21466;-66
2021/03/06 05:54:31;;;;;;;4.92;1.80;;;;;;;-3.42;57.45;100156.77;1719467;82;21219;-66
2021/03/06 05:56:58;;;;;;;6.05;2.10;;;;;;;-3.17;56.71;100159.66;1737560;82;21577;-66
2021/03/06 05:59:25;;;;;;;5.60;1.92;;;;;;;-3.01;55.74;100157.73;1726259;82;21191;-66
2021/03/06 06:01:53;;;;;;;3.47;1.55;;;;;;;-2.80;54.91;100161.64;1721052;82;21157;-66
2021/03/06 06:04:23;;;;;;;7.62;2.47;;;;;;;-2.58;54.61;100175.48;1724599;83;21170;-67
2021/03/06 06:06:51;;;;;;;7.90;2.15;;;;;;;-2.41;54.04;100176.22;1705591;83;21197;-67
2021/03/06 06:09:18;;;;;;;5.72;1.75;;;;;;;-2.25;53.75;100178.75;1726697;83;21605;-68
2021/03/06 06:11:45;;;;;;;3.87;1.55;;;;;;;-2.02;52.58;100178.23;1729323;83;21209;-68
2021/03/06 06:14:13;;;;;;;4.08;1.42;;;;;;;-1.82;52.15;100187.89;1718302;83;21174;-68
2021/03/06 06:16:40;;;;;;;3.70;1.30;;;;;;;-1.57;51.46;100194.15;1732210;83;21222;-68
2021/03/06 06:19:08;;;;;;;4.25;1.80;;;;;;;-1.41;49.55;100201.64;1714120;83;21166;-67
2021/03/06 06:21:46;;;;;;;4.75;1.80;;;;;;;-1.33;49.11;100201.56;1723677;83;21158;-67
2021/03/06 06:24:20;;;;;;;3.62;1.50;;;;;;;-1.19;48.90;100200.73;1712008;83;21165;-67
2021/03/06 06:27:02;;;;;;;4.15;1.50;;;;;;;-1.05;47.24;100210.58;1702957;83;21180;-67
2021/03/06 06:32:28;;;;;;;5.08;1.62;;;;;;;-0.79;45.75;100204.25;1810313;79;23098;-66
2021/03/06 06:35:03;;;;;;;3.95;1.30;;;;;;;-0.71;45.77;100205.99;1753991;80;21668;-65
2021/03/06 06:37:31;;;;;;;3.65;1.30;;;;;;;-0.54;46.80;100212.27;1767408;80;21149;-66
2021/03/06 06:39:59;;;;;;;4.92;1.62;;;;;;;-0.26;44.91;100208.34;1757303;81;21157;-66
2021/03/06 06:42:34;;;;;;;4.35;1.22;;;;;;;-0.09;44.26;100203.55;1767715;80;21127;-67
2021/03/06 06:45:04;;;;;;;3.15;1.05;;;;;;;0.14;44.07;100204.20;1712017;83;21186;-67
2021/03/06 06:47:37;;;;;;;3.98;1.82;;;;;;;0.37;42.04;100199.94;1703375;83;21193;-69
2021/03/06 06:50:06;;;;;;;2.08;1.00;;;;;;;0.49;41.14;100204.58;1711036;83;21588;-67
2021/03/06 06:52:40;;;;;;;4.25;1.22;;;;;;;0.57;41.41;100208.12;1713941;83;21335;-68
2021/03/06 06:55:12;;;;;;;3.70;1.20;;;;;;;0.70;42.01;100203.67;1715283;82;21560;-67
2021/03/06 06:57:54;;;;;;;2.77;1.25;;;;;;;0.83;40.43;100210.45;1705729;83;21189;-67
2021/03/06 07:00:21;;;;;;;5.47;1.42;;;;;;;0.91;42.12;100192.05;1706111;83;21256;-67
2021/03/06 07:02:55;;;;;;;4.17;1.10;;;;;;;1.28;40.93;100216.23;1682252;84;21168;-67
2021/03/06 07:05:35;;;;;;;2.70;0.98;;;;;;;1.52;40.48;100218.92;1706356;84;21565;-67
2021/03/06 07:08:10;;;;;;;3.90;1.52;;;;;;;1.52;36.78;100214.39;1720505;83;21219;-66
2021/03/06 07:10:40;;;;;;;3.25;1.10;;;;;;;1.38;38.04;100217.51;1694326;83;21222;-67
2021/03/06 07:13:10;;;;;;;3.42;1.35;;;;;;;1.29;39.13;100221.41;1705270;83;21219;-67
2021/03/06 07:15:38;;;;;;;3.70;1.30;;;;;;;1.38;38.20;100228.23;1697123;84;21616;-67
2021/03/06 07:18:12;;;;;;;3.87;1.00;;;;;;;1.30;36.97;100220.39;1698395;84;21624;-67
2021/03/06 07:20:40;;;;;;;2.67;0.90;;;;;;;1.22;37.40;100223.23;1723410;83;21217;-68
2021/03/06 07:23:15;;;;;;;4.87;1.20;;;;;;;1.33;38.61;100225.86;1725007;82;21165;-68
2021/03/06 07:25:42;;;;;;;2.37;0.80;;;;;;;1.65;38.26;100229.17;1724260;82;21197;-67
2021/03/06 07:28:10;;;;;;;4.08;1.35;;;;;;;1.77;37.39;100233.45;1724049;83;21168;-67
2021/03/06 07:30:37;;;;;;;2.12;0.88;;;;;;;1.86;36.90;100230.36;1721643;81;21209;-68
2021/03/06 07:33:07;;;;;;;3.15;0.98;;;;;;;1.89;35.67;100224.58;1751691;80;21199;-67
2021/03/06 07:35:38;;;;;;;2.87;0.90;;;;;;;1.95;36.42;100229.64;1749344;82;21685;-66
2021/03/06 07:38:08;;;;;;;3.15;0.98;;;;;;;1.99;35.86;100229.55;1776339;80;21181;-67
2021/03/06 07:40:41;;;;;;;2.15;0.70;;;;;;;2.12;35.80;100233.62;1767610;80;21217;-67
2021/03/06 07:43:14;;;;;;;2.77;0.80;;;;;;;2.07;34.38;100236.08;1709500;84;21181;-68
2021/03/06 07:45:44;;;;;;;4.20;0.82;;;;;;;2.10;35.68;100230.80;1712563;84;21206;-68
2021/03/06 07:48:14;;;;;;;2.85;0.70;;;;;;;2.27;36.10;100237.42;1711489;83;21219;-67
2021/03/06 07:50:48;;;;;;;3.33;1.00;;;;;;;2.33;35.58;100244.69;1760111;80;21168;-68
2021/03/06 07:53:18;;;;;;;3.12;0.80;;;;;;;2.39;36.10;100234.44;1748909;82;21571;-66
2021/03/06 07:55:47;;;;;;;2.50;1.00;;;;;;;2.49;34.96;100234.84;1733708;82;21177;-68
2021/03/06 07:58:23;;;;;;;3.47;1.20;;;;;;;2.50;34.82;100225.77;1695342;84;21541;-67
2021/03/06 08:00:57;;;;;;;2.87;0.93;;;;;;;2.56;35.96;100236.19;1747343;81;21582;-68
2021/03/06 08:03:33;;;;;;;3.60;1.10;;;;;;;2.45;35.74;100237.64;1753913;80;21137;-67
2021/03/06 08:06:19;;;;;;;2.52;1.05;;;;;;;2.49;34.76;100235.69;1764024;80;21546;-68
2021/03/06 08:08:54;;;;;;;2.65;0.80;;;;;;;2.47;35.02;100235.59;1750980;80;21183;-67
2021/03/06 08:11:38;;;;;;;1.87;0.75;;;;;;;2.29;35.48;100238.06;1751943;80;21724;-65
2021/03/06 08:14:29;;;;;;;3.58;0.90;;;;;;;2.20;35.49;100240.11;1749713;80;21142;-64
2021/03/06 08:16:57;;;;;;;2.47;1.12;;;;;;;2.08;34.31;100240.42;1749821;80;21102;-62
2021/03/06 08:19:25;;;;;;;3.27;1.20;;;;;;;2.14;34.67;100242.28;1749273;80;21167;-64
2021/03/06 08:21:56;;;;;;;2.27;0.88;;;;;;;2.19;35.63;100241.16;1757698;80;21153;-66
2021/03/06 08:24:28;;;;;;;3.72;1.02;;;;;;;2.22;35.19;100239.41;1683982;85;21209;-62
2021/03/06 08:27:10;;;;;;;3.30;1.20;;;;;;;2.36;34.31;100238.89;1755389;80;21179;-66
2021/03/06 08:29:46;;;;;;;2.72;1.02;;;;;;;2.56;35.94;100242.91;1754405;80;21182;-63
2021/03/06 08:32:19;;;;;;;1.57;0.80;;;;;;;2.78;35.93;100234.42;1745214;80;21152;-62
2021/03/06 08:34:54;;;;;;;2.22;0.90;;;;;;;3.19;33.09;100232.76;1740533;82;21205;-65
2021/03/06 08:37:28;;;;;;;3.02;0.90;;;;;;;3.20;32.91;100224.17;1741705;82;21170;-67
2021/03/06 08:40:11;;;;;;;1.98;0.80;;;;;;;3.09;32.87;100232.89;1678730;84;21185;-63
2021/03/06 08:42:48;;;;;;;2.75;1.02;;;;;;;2.95;32.44;100233.45;1741506;81;21126;-66
2021/03/06 08:45:27;;;;;;;2.42;0.88;;;;;;;2.82;31.96;100233.48;1740559;82;21217;-65
2021/03/06 08:48:01;;;;;;;2.58;0.88;;;;;;;2.71;31.40;100219.33;1741079;81;21720;-65
2021/03/06 08:50:31;;;;;;;2.33;0.70;;;;;;;2.59;31.51;100225.05;1741200;81;21179;-65
2021/03/06 08:53:07;;;;;;;1.82;0.65;;;;;;;2.65;33.02;100220.17;1742731;82;21166;-66
2021/03/06 08:55:40;;;;;;;2.67;0.65;;;;;;;2.78;31.99;100219.63;1740934;81;21159;-64
2021/03/06 08:58:18;;;;;;;2.10;0.75;;;;;;;2.91;31.21;100228.17;1742817;82;21178;-63
2021/03/06 09:00:47;;;;;;;1.85;0.70;;;;;;;2.83;31.85;100224.39;1742855;82;21207;-61
2021/03/06 09:03:26;;;;;;;2.92;1.10;;;;;;;2.69;33.37;100214.69;1747252;81;21701;-65
2021/03/06 09:06:00;;;;;;;3.00;0.68;;;;;;;2.69;33.41;100220.90;1742493;82;21708;-64
2021/03/06 09:08:28;;;;;;;2.47;0.70;;;;;;;2.76;31.56;100219.03;1742344;81;21629;-65
2021/03/06 09:10:58;;;;;;;2.15;0.78;;;;;;;2.87;31.98;100220.25;1743204;81;21147;-65
2021/03/06 09:13:28;;;;;;;2.52;0.82;;;;;;;2.82;32.11;100222.73;1741259;81;21646;-65
2021/03/06 09:16:03;;;;;;;3.00;0.75;;;;;;;2.81;32.54;100218.38;1740898;82;21154;-65
2021/03/06 09:18:33;;;;;;;4.45;0.80;;;;;;;2.82;32.86;100225.41;1740815;82;21169;-65
2021/03/06 09:23:44;;;;;;;3.00;0.90;;;;;;;2.70;33.81;100222.53;1762811;79;23403;-64
2021/03/06 09:26:25;;;;;;;3.35;1.17;;;;;;;2.74;33.86;100231.83;1722538;83;21596;-64
2021/03/06 09:28:56;;;;;;;2.50;0.90;;;;;;;2.57;32.54;100231.13;1722231;83;21203;-64
2021/03/06 09:31:31;;;;;;;4.42;1.30;;;;;;;2.52;33.17;100226.37;1719904;83;21161;-64
2021/03/06 09:33:59;;;;;;;3.17;1.07;;;;;;;2.64;33.16;100220.69;1694075;83;21346;-61
2021/03/06 09:36:31;;;;;;;3.35;1.10;;;;;;;2.71;33.14;100217.98;1637868;87;21496;-63
2021/03/06 09:39:00;;;;;;;2.62;1.20;;;;;;;2.81;33.78;100222.41;1643166;86;21183;-66
2021/03/06 09:41:42;;;;;;;2.67;0.72;;;;;;;2.80;32.14;100225.61;1639339;86;21306;-65
2021/03/06 09:44:07;;;;;;;3.08;1.32;;;;;;;2.62;31.04;100228.14;1649260;86;21229;-66
2021/03/06 09:46:35;;;;;;;3.30;1.30;;;;;;;2.64;33.37;100223.89;1650682;86;21180;-65
2021/03/06 09:49:09;;;;;;;3.20;1.32;;;;;;;2.54;32.96;100228.86;1647085;86;21317;-65
2021/03/06 09:51:52;;;;;;;3.60;1.07;;;;;;;2.40;32.83;100225.36;1639418;86;21176;-64
2021/03/06 09:54:25;;;;;;;3.17;1.40;;;;;;;2.42;32.51;100225.45;1643610;87;21168;-64
2021/03/06 09:57:01;;;;;;;2.87;0.85;;;;;;;2.36;32.28;100212.85;1639717;86;21224;-64
2021/03/06 09:59:31;;;;;;;2.55;0.90;;;;;;;2.48;32.12;100215.72;1685408;83;21499;-64
2021/03/06 10:02:07;;;;;;;4.60;1.27;;;;;;;2.58;32.33;100219.35;1712125;83;21620;-65
2021/03/06 10:04:45;;;;;;;3.80;1.45;;;;;;;2.69;32.61;100212.00;1763031;79;22622;-66
2021/03/06 10:07:14;;;;;;;4.60;1.50;;;;;;;2.74;33.36;100218.39;1738844;81;21580;-65
2021/03/06 10:09:42;;;;;;;3.77;1.12;;;;;;;2.89;34.03;100216.30;1732616;82;21199;-65
2021/03/06 10:12:16;;;;;;;3.12;0.90;;;;;;;3.03;32.26;100214.41;1663158;85;21152;-65
2021/03/06 10:14:48;;;;;;;3.17;1.15;;;;;;;3.04;32.28;100221.45;1710961;84;21352;-64
2021/03/06 10:17:23;;;;;;;2.62;1.27;;;;;;;2.93;33.40;100214.85;1702989;84;21283;-64
2021/03/06 10:19:53;;;;;;;2.12;0.90;;;;;;;2.99;34.25;100212.66;1694001;83;21145;-64
2021/03/06 10:22:20;;;;;;;2.83;0.95;;;;;;;3.27;33.24;100205.63;1665844;85;21627;-65
2021/03/06 10:24:59;;;;;;;2.12;0.85;;;;;;;3.38;32.86;100210.34;1697250;83;21200;-64
2021/03/06 10:27:41;;;;;;;;;;;;;;;3.35;31.11;100210.78;1696154;84;21193;-64
2021/03/06 10:30:23;;;;;;;1.77;0.65;;;;;;;3.32;31.48;100208.52;1679828;84;20192;-65
2021/03/06 10:33:02;;;;;;;4.25;0.90;;;;;;;3.30;31.16;100203.85;1667247;85;21212;-66
2021/03/06 10:38:31;;;;;;;4.72;0.85;;;;;;;3.54;31.43;100206.35;1768895;79;22759;-64
2021/03/06 10:41:00;;;;;;;4.83;0.82;;;;;;;3.55;32.61;100205.29;1720512;83;21149;-66
2021/03/06 10:43:37;;;;;;;4.83;1.17;;;;;;;3.66;31.74;100199.75;1715688;83;21177;-66
2021/03/06 10:46:15;;;;;;;4.47;1.30;;;;;;;3.42;31.16;100194.08;1718666;83;21307;-64
2021/03/06 10:48:45;;;;;;;3.25;1.10;;;;;;;3.18;33.21;100192.12;1708632;83;21164;-65
2021/03/06 10:51:12;;;;;;;3.05;1.17;;;;;;;3.13;32.56;100191.09;1703274;83;21200;-62
2021/03/06 10:53:40;;;;;;;2.60;0.95;;;;;;;2.95;32.92;100193.11;1649791;87;21191;-64
2021/03/06 10:56:19;;;;;;;3.62;1.17;;;;;;;2.84;32.75;100189.72;1650137;87;21615;-63
2021/03/06 10:58:48;;;;;;;3.27;1.00;;;;;;;2.75;32.99;100189.14;1669571;85;21188;-64
2021/03/06 11:01:17;;;;;;;5.40;1.77;;;;;;;2.62;34.44;100191.03;1647150;85;21186;-64
2021/03/06 11:03:46;;;;;;;2.83;1.10;;;;;;;2.57;34.99;100181.41;1649522;87;21723;-65
2021/03/06 11:06:14;;;;;;;2.72;1.05;;;;;;;2.44;34.98;100180.92;1682278;85;21516;-62
2021/03/06 11:08:43;;;;;;;3.83;1.30;;;;;;;2.47;34.30;100185.36;1678151;84;21188;-65
2021/03/06 11:11:10;;;;;;;2.92;1.22;;;;;;;2.52;34.31;100176.65;1672467;85;21589;-66
2021/03/06 11:13:43;;;;;;;3.05;1.32;;;;;;;2.58;34.71;100178.52;1654059;85;21225;-64
2021/03/06 11:16:11;;;;;;;1.95;0.93;;;;;;;2.62;35.00;100178.42;1649507;87;21149;-64
2021/03/06 11:18:41;;;;;;;3.37;1.27;;;;;;;2.63;33.41;100181.91;1683736;85;21230;-64
2021/03/06 11:21:11;;;;;;;2.70;1.02;;;;;;;2.58;34.05;100173.66;1658882;85;21204;-64
2021/03/06 11:23:41;;;;;;;2.42;1.20;;;;;;;2.56;35.50;100177.06;1664462;85;21195;-64
2021/03/06 11:26:08;;;;;;;4.40;1.62;;;;;;;2.55;34.85;100178.91;1658226;85;21194;-65
2021/03/06 11:28:36;;;;;;;3.08;1.32;;;;;;;2.53;34.75;100173.45;1668782;85;21189;-64
2021/03/06 11:31:04;;;;;;;3.70;1.35;;;;;;;2.45;34.65;100171.80;1672926;85;21173;-65
2021/03/06 11:33:32;;;;;;;3.58;1.20;;;;;;;2.27;34.24;100171.09;1676337;85;21709;-65
2021/03/06 11:36:00;;;;;;;5.17;1.80;;;;;;;2.12;35.32;100179.07;1666909;85;21172;-65
2021/03/06 11:38:27;;;;;;;3.83;1.57;;;;;;;1.99;36.00;100175.33;1662245;84;21768;-64
2021/03/06 11:40:57;;;;;;;3.95;1.00;;;;;;;1.89;35.97;100175.42;1641655;86;21190;-65
2021/03/06 11:43:24;;;;;;;2.92;1.20;;;;;;;1.81;35.68;100180.98;1659905;86;21178;-65
2021/03/06 11:45:52;;;;;;;3.12;1.10;;;;;;;1.79;35.41;100175.00;1662986;86;21830;-65
2021/03/06 11:48:20;;;;;;;2.15;0.80;;;;;;;1.78;35.02;100169.31;1689330;84;21171;-65
2021/03/06 11:50:49;;;;;;;3.58;1.52;;;;;;;1.91;36.02;100159.41;1678897;84;21149;-64
2021/03/06 11:53:17;;;;;;;4.17;2.12;;;;;;;2.00;36.83;100158.71;1709272;84;21357;-64
2021/03/06 11:55:44;;;;;;;3.70;1.65;;;;;;;2.09;37.32;100165.52;1709139;83;21185;-65
2021/03/06 11:58:12;;;;;;;6.37;2.92;;;;;;;2.17;35.34;100163.14;1708993;84;21174;-64
2021/03/06 12:00:39;;;;;;;7.37;2.58;;;;;;;2.28;36.41;100164.70;1708504;84;21182;-65
2021/03/06 12:03:08;;;;;;;21.05;10.43;;;;;;;2.21;35.44;100167.07;1697016;82;21145;-66